Main page


Airports :

Cardiff, Wales

Cardiff Airport

latitude: 51-24N, longitude: 003-21W, elevation: 67 m

Current weather observation

The report was made 17 minutes ago, at 17:20 UTC
Wind 7 kt from the North/Northwest
Temperature 7°C
Humidity 66%
Pressure 1032 hPa
Visibility 10 km or more
Broken clouds at a height of 3600 ft

METAR: EGFF 201720Z 34007KT 9999 BKN036 07/01 Q1032

Time: 17:37 (17:37 UTC)


The report was made 37 minutes ago, at 17:00 UTC
Forecast valid from 20 at 18 UTC to 21 at 18 UTC
Wind 9 kt from the North
Visibility 10 km or more
Scattered clouds at a height of 3000 ft
from 21 at 09 UTC to 21 at 12 UTC
Wind 12 kt from the West
Probability 30% :
from 21 at 16 UTC to 21 at 18 UTC
Visibility: 8000 m
light rain

TAF: EGFF 201700Z 2018/2118 36009KT 9999 SCT030 BECMG 2109/2112 27012KT PROB30 TEMPO 2116/2118 8000 -RA

Weather observations and forecasts of more than 4000 airports (METAR and TAF reports).

The available stations are represented by yellow and red dots on the map.

Hover mouse over dot to see the name of the station.

Then click to see weather observations and forecasts.

To change the map : click on the green buttons with a black cross to zoom in, on the green button with a dash to zoom out, or on the green arrows for adjacent maps.